KOWD/OWD METAR and TAF weather

Enter ICAO airport designator
Station Type Date Time Source
KOWD METAR 2022/01/23 11:53 UTC NOAA

KOWD 231153Z AUTO 24006KT 10SM CLR M06/M11 A2995 RMK AO2 SLP142 I6000 T10611106 11056 21122 55005


Station Type Date Time Source
KOWD Decoded METAR 2022/01/23 11:53 UTC NOAA

NORWOOD MEMORIAL AIRPORT, MA, United States (KOWD) 42-11N 71-10W 19M
Jan 23, 2022 - 06:53 AM EST / 2022.01.23 1153 UTC
Wind: from the WSW (240 degrees) at 7 MPH (6 KT):0
Visibility: 10 mile(s):0
Sky conditions: clear
Temperature: 21.0 F (-6.1 C)
Windchill: 12 F (-11 C):1
Dew Point: 12.9 F (-10.6 C)
Relative Humidity: 70%
Pressure (altimeter): 29.95 in. Hg (1014 hPa)
Pressure tendency: 0.01 inches (0.5 hPa) lower than three hours ago
ob: KOWD 231153Z AUTO 24006KT 10SM CLR M06/M11 A2995 RMK AO2 SLP142 I6000 T10611106 11056 21122 55005
cycle: 12

Station Type Date Time Source
KOWD TAF UTC NOAA

Error!

Example: see airport list